sensor_id;sensor_type;location;lat;lon;timestamp;pressure;altitude;pressure_sealevel;temperature;humidity
61018;BME280;48171;51.550;5.434;2022-11-20T00:01:11;101338.31;;;0.12;79.11
61018;BME280;48171;51.550;5.434;2022-11-20T00:03:37;101338.94;;;0.07;79.01
61018;BME280;48171;51.550;5.434;2022-11-20T00:06:04;101336.16;;;0.02;79.81
61018;BME280;48171;51.550;5.434;2022-11-20T00:08:30;101339.47;;;-0.01;78.96
61018;BME280;48171;51.550;5.434;2022-11-20T00:10:55;101334.97;;;-0.05;79.76
61018;BME280;48171;51.550;5.434;2022-11-20T00:13:20;101335.84;;;-0.04;79.16
61018;BME280;48171;51.550;5.434;2022-11-20T00:15:46;101336.59;;;-0.07;79.03
61018;BME280;48171;51.550;5.434;2022-11-20T00:18:11;101339.97;;;-0.09;78.88
61018;BME280;48171;51.550;5.434;2022-11-20T00:20:36;101326.81;;;-0.12;79.58
61018;BME280;48171;51.550;5.434;2022-11-20T00:23:01;101333.88;;;-0.10;79.62
61018;BME280;48171;51.550;5.434;2022-11-20T00:25:27;101341.00;;;-0.06;79.67
61018;BME280;48171;51.550;5.434;2022-11-20T00:30:27;101336.94;;;-0.18;79.50
61018;BME280;48171;51.550;5.434;2022-11-20T00:32:52;101333.47;;;-0.19;80.24
61018;BME280;48171;51.550;5.434;2022-11-20T00:35:18;101331.72;;;-0.20;80.10
61018;BME280;48171;51.550;5.434;2022-11-20T00:37:43;101330.81;;;-0.21;80.40
61018;BME280;48171;51.550;5.434;2022-11-20T00:40:09;101325.34;;;-0.27;79.65
61018;BME280;48171;51.550;5.434;2022-11-20T00:42:34;101318.84;;;-0.36;79.66
61018;BME280;48171;51.550;5.434;2022-11-20T00:44:59;101324.94;;;-0.36;80.71
61018;BME280;48171;51.550;5.434;2022-11-20T00:47:25;101326.50;;;-0.39;80.45
61018;BME280;48171;51.550;5.434;2022-11-20T00:49:50;101332.31;;;-0.45;79.64
61018;BME280;48171;51.550;5.434;2022-11-20T00:52:15;101333.06;;;-0.48;80.65
61018;BME280;48171;51.550;5.434;2022-11-20T00:54:40;101325.06;;;-0.52;80.42
61018;BME280;48171;51.550;5.434;2022-11-20T00:57:06;101331.91;;;-0.54;80.97
61018;BME280;48171;51.550;5.434;2022-11-20T00:59:31;101328.47;;;-0.53;80.78
61018;BME280;48171;51.550;5.434;2022-11-20T01:01:56;101321.53;;;-0.54;81.35
61018;BME280;48171;51.550;5.434;2022-11-20T01:04:21;101326.72;;;-0.54;80.48
61018;BME280;48171;51.550;5.434;2022-11-20T01:06:47;101326.72;;;-0.54;80.68
61018;BME280;48171;51.550;5.434;2022-11-20T01:09:13;101318.00;;;-0.55;81.17
61018;BME280;48171;51.550;5.434;2022-11-20T01:11:43;101316.94;;;-0.60;81.00
61018;BME280;48171;51.550;5.434;2022-11-20T01:14:11;101327.72;;;-0.51;80.97
61018;BME280;48171;51.550;5.434;2022-11-20T01:16:39;101329.03;;;-0.61;80.91
61018;BME280;48171;51.550;5.434;2022-11-20T01:19:09;101322.56;;;-0.69;81.06
61018;BME280;48171;51.550;5.434;2022-11-20T01:21:37;101333.63;;;-0.73;81.24
61018;BME280;48171;51.550;5.434;2022-11-20T01:24:04;101323.03;;;-0.77;81.60
61018;BME280;48171;51.550;5.434;2022-11-20T01:26:32;101323.72;;;-0.82;82.24
61018;BME280;48171;51.550;5.434;2022-11-20T01:28:59;101323.72;;;-0.82;82.06
61018;BME280;48171;51.550;5.434;2022-11-20T01:31:36;101327.34;;;-0.78;82.50
61018;BME280;48171;51.550;5.434;2022-11-20T01:34:05;101326.59;;;-0.75;82.17
61018;BME280;48171;51.550;5.434;2022-11-20T01:36:32;101322.94;;;-0.79;82.18
61018;BME280;48171;51.550;5.434;2022-11-20T01:39:00;101320.31;;;-0.81;82.73
61018;BME280;48171;51.550;5.434;2022-11-20T01:41:28;101321.94;;;-0.83;82.49
61018;BME280;48171;51.550;5.434;2022-11-20T01:44:15;101316.75;;;-0.83;83.19
61018;BME280;48171;51.550;5.434;2022-11-20T01:49:18;101322.63;;;-0.87;82.63
61018;BME280;48171;51.550;5.434;2022-11-20T01:51:56;101324.84;;;-0.94;82.17
61018;BME280;48171;51.550;5.434;2022-11-20T01:54:34;101316.03;;;-0.98;83.11
61018;BME280;48171;51.550;5.434;2022-11-20T01:57:01;101316.03;;;-0.98;83.23
61018;BME280;48171;51.550;5.434;2022-11-20T01:59:28;101314.84;;;-1.05;82.68
61018;BME280;48171;51.550;5.434;2022-11-20T02:01:54;101322.47;;;-1.08;82.80
61018;BME280;48171;51.550;5.434;2022-11-20T02:04:20;101323.22;;;-1.10;82.95
61018;BME280;48171;51.550;5.434;2022-11-20T02:07:14;101318.25;;;-1.06;83.71
61018;BME280;48171;51.550;5.434;2022-11-20T02:09:39;101316.41;;;-1.08;83.13
61018;BME280;48171;51.550;5.434;2022-11-20T02:12:05;101316.31;;;-1.10;83.32
61018;BME280;48171;51.550;5.434;2022-11-20T02:14:50;101313.72;;;-1.10;83.15
61018;BME280;48171;51.550;5.434;2022-11-20T02:17:16;101324.69;;;-1.15;83.44
61018;BME280;48171;51.550;5.434;2022-11-20T02:19:41;101318.50;;;-1.19;83.00
61018;BME280;48171;51.550;5.434;2022-11-20T02:22:23;101317.66;;;-1.18;83.40
61018;BME280;48171;51.550;5.434;2022-11-20T02:24:51;101306.41;;;-1.18;83.89
61018;BME280;48171;51.550;5.434;2022-11-20T02:27:16;101299.72;;;-1.13;84.29
61018;BME280;48171;51.550;5.434;2022-11-20T02:29:53;101297.59;;;-1.22;83.38
61018;BME280;48171;51.550;5.434;2022-11-20T02:32:23;101309.09;;;-1.17;82.85
61018;BME280;48171;51.550;5.434;2022-11-20T02:34:48;101301.97;;;-1.21;83.86
61018;BME280;48171;51.550;5.434;2022-11-20T02:37:14;101305.75;;;-1.14;84.33
61018;BME280;48171;51.550;5.434;2022-11-20T02:39:41;101298.09;;;-1.11;84.06
61018;BME280;48171;51.550;5.434;2022-11-20T02:42:07;101299.13;;;-1.08;83.90
61018;BME280;48171;51.550;5.434;2022-11-20T02:44:32;101293.00;;;-1.10;83.97
61018;BME280;48171;51.550;5.434;2022-11-20T02:46:58;101287.22;;;-1.04;84.78
61018;BME280;48171;51.550;5.434;2022-11-20T02:49:24;101289.22;;;-0.98;84.94
61018;BME280;48171;51.550;5.434;2022-11-20T02:51:49;101289.28;;;-0.97;84.47
61018;BME280;48171;51.550;5.434;2022-11-20T02:54:14;101291.56;;;-1.03;83.87
61018;BME280;48171;51.550;5.434;2022-11-20T02:56:40;101296.47;;;-1.09;84.28
61018;BME280;48171;51.550;5.434;2022-11-20T02:59:05;101304.91;;;-1.13;84.39
61018;BME280;48171;51.550;5.434;2022-11-20T03:01:30;101296.19;;;-1.15;84.67
61018;BME280;48171;51.550;5.434;2022-11-20T03:03:56;101298.06;;;-1.13;85.14
61018;BME280;48171;51.550;5.434;2022-11-20T03:06:21;101289.34;;;-1.13;84.81
61018;BME280;48171;51.550;5.434;2022-11-20T03:08:47;101300.78;;;-1.10;84.82
61018;BME280;48171;51.550;5.434;2022-11-20T03:11:12;101297.13;;;-1.13;85.02
61018;BME280;48171;51.550;5.434;2022-11-20T03:13:38;101288.47;;;-1.14;85.09
61018;BME280;48171;51.550;5.434;2022-11-20T03:16:18;101298.09;;;-1.11;85.20
61018;BME280;48171;51.550;5.434;2022-11-20T03:18:43;101294.25;;;-1.02;84.83
61018;BME280;48171;51.550;5.434;2022-11-20T03:21:10;101292.13;;;-1.10;84.52
61018;BME280;48171;51.550;5.434;2022-11-20T03:23:36;101294.63;;;-1.12;84.79
61018;BME280;48171;51.550;5.434;2022-11-20T03:26:12;101301.72;;;-1.08;85.00
61018;BME280;48171;51.550;5.434;2022-11-20T03:28:38;101291.28;;;-1.09;84.76
61018;BME280;48171;51.550;5.434;2022-11-20T03:31:08;101287.81;;;-1.10;85.04
61018;BME280;48171;51.550;5.434;2022-11-20T03:33:33;101293.28;;;-1.04;84.53
61018;BME280;48171;51.550;5.434;2022-11-20T03:36:07;101273.81;;;-1.13;84.89
61018;BME280;48171;51.550;5.434;2022-11-20T03:38:33;101274.72;;;-1.13;85.17
61018;BME280;48171;51.550;5.434;2022-11-20T03:41:00;101273.00;;;-1.12;85.82
61018;BME280;48171;51.550;5.434;2022-11-20T03:43:26;101270.63;;;-1.08;86.51
61018;BME280;48171;51.550;5.434;2022-11-20T03:45:52;101269.06;;;-1.04;86.59
61018;BME280;48171;51.550;5.434;2022-11-20T03:48:17;101260.69;;;-0.98;86.69
61018;BME280;48171;51.550;5.434;2022-11-20T03:50:42;101261.72;;;-0.95;86.30
61018;BME280;48171;51.550;5.434;2022-11-20T03:53:08;101259.84;;;-0.97;86.19
61018;BME280;48171;51.550;5.434;2022-11-20T03:55:33;101253.50;;;-1.04;85.84
61018;BME280;48171;51.550;5.434;2022-11-20T03:57:58;101258.78;;;-1.03;86.33
61018;BME280;48171;51.550;5.434;2022-11-20T04:00:23;101243.22;;;-1.03;86.10
61018;BME280;48171;51.550;5.434;2022-11-20T04:02:49;101244.09;;;-1.02;85.87
61018;BME280;48171;51.550;5.434;2022-11-20T04:05:14;101248.31;;;-1.04;85.08
61018;BME280;48171;51.550;5.434;2022-11-20T04:07:39;101244.59;;;-1.09;85.35
61018;BME280;48171;51.550;5.434;2022-11-20T04:10:05;101244.56;;;-1.11;85.53
61018;BME280;48171;51.550;5.434;2022-11-20T04:12:33;101238.34;;;-1.14;85.07
61018;BME280;48171;51.550;5.434;2022-11-20T04:14:59;101251.31;;;-1.14;85.91
61018;BME280;48171;51.550;5.434;2022-11-20T04:17:24;101248.63;;;-1.16;86.34
61018;BME280;48171;51.550;5.434;2022-11-20T04:19:49;101238.34;;;-1.14;86.54
61018;BME280;48171;51.550;5.434;2022-11-20T04:22:15;101249.75;;;-1.11;85.60
61018;BME280;48171;51.550;5.434;2022-11-20T04:24:40;101257.44;;;-1.12;85.83
61018;BME280;48171;51.550;5.434;2022-11-20T04:27:06;101250.19;;;-1.19;85.57
61018;BME280;48171;51.550;5.434;2022-11-20T04:29:31;101242.47;;;-1.18;85.43
61018;BME280;48171;51.550;5.434;2022-11-20T04:31:56;101237.16;;;-1.21;85.23
61018;BME280;48171;51.550;5.434;2022-11-20T04:34:22;101235.47;;;-1.21;85.78
61018;BME280;48171;51.550;5.434;2022-11-20T04:36:47;101235.66;;;-1.16;85.54
61018;BME280;48171;51.550;5.434;2022-11-20T04:39:13;101243.16;;;-1.22;85.08
61018;BME280;48171;51.550;5.434;2022-11-20T04:41:40;101245.63;;;-1.25;84.96
61018;BME280;48171;51.550;5.434;2022-11-20T04:44:05;101245.34;;;-1.31;85.23
61018;BME280;48171;51.550;5.434;2022-11-20T04:46:33;101241.03;;;-1.31;86.05
61018;BME280;48171;51.550;5.434;2022-11-20T04:48:59;101235.75;;;-1.32;85.73
61018;BME280;48171;51.550;5.434;2022-11-20T04:51:25;101235.59;;;-1.35;86.02
61018;BME280;48171;51.550;5.434;2022-11-20T04:53:50;101239.13;;;-1.35;85.92
61018;BME280;48171;51.550;5.434;2022-11-20T04:56:16;101227.84;;;-1.35;85.89
61018;BME280;48171;51.550;5.434;2022-11-20T04:58:42;101224.28;;;-1.37;86.24
61018;BME280;48171;51.550;5.434;2022-11-20T05:01:13;101228.66;;;-1.36;86.24
61018;BME280;48171;51.550;5.434;2022-11-20T05:03:43;101227.69;;;-1.38;86.29
61018;BME280;48171;51.550;5.434;2022-11-20T05:06:10;101223.19;;;-1.43;85.69
61018;BME280;48171;51.550;5.434;2022-11-20T05:08:36;101222.34;;;-1.42;86.13
61018;BME280;48171;51.550;5.434;2022-11-20T05:11:03;101226.75;;;-1.41;86.24
61018;BME280;48171;51.550;5.434;2022-11-20T05:13:29;101215.34;;;-1.44;86.21
61018;BME280;48171;51.550;5.434;2022-11-20T05:15:55;101210.91;;;-1.47;86.97
61018;BME280;48171;51.550;5.434;2022-11-20T05:18:20;101215.50;;;-1.41;86.32
61018;BME280;48171;51.550;5.434;2022-11-20T05:20:45;101212.06;;;-1.40;86.95
61018;BME280;48171;51.550;5.434;2022-11-20T05:23:10;101213.69;;;-1.42;86.28
61018;BME280;48171;51.550;5.434;2022-11-20T05:25:36;101199.03;;;-1.42;86.81
61018;BME280;48171;51.550;5.434;2022-11-20T05:28:01;101201.78;;;-1.38;87.19
61018;BME280;48171;51.550;5.434;2022-11-20T05:30:26;101204.47;;;-1.37;87.18
61018;BME280;48171;51.550;5.434;2022-11-20T05:32:52;101207.19;;;-1.34;87.57
61018;BME280;48171;51.550;5.434;2022-11-20T05:35:17;101209.16;;;-1.28;87.49
61018;BME280;48171;51.550;5.434;2022-11-20T05:37:42;101201.47;;;-1.27;87.53
61018;BME280;48171;51.550;5.434;2022-11-20T05:40:08;101200.59;;;-1.27;87.68
61018;BME280;48171;51.550;5.434;2022-11-20T05:42:33;101199.09;;;-1.22;87.35
61018;BME280;48171;51.550;5.434;2022-11-20T05:45:00;101207.97;;;-1.17;87.35
61018;BME280;48171;51.550;5.434;2022-11-20T05:47:28;101205.31;;;-1.18;87.96
61018;BME280;48171;51.550;5.434;2022-11-20T05:49:55;101207.06;;;-1.17;87.55
61018;BME280;48171;51.550;5.434;2022-11-20T05:52:21;101207.91;;;-1.18;87.94
61018;BME280;48171;51.550;5.434;2022-11-20T05:54:46;101209.53;;;-1.21;88.17
61018;BME280;48171;51.550;5.434;2022-11-20T05:57:11;101218.28;;;-1.18;88.48
61018;BME280;48171;51.550;5.434;2022-11-20T05:59:36;101221.75;;;-1.18;88.63
61018;BME280;48171;51.550;5.434;2022-11-20T06:02:02;101224.22;;;-1.21;88.48
61018;BME280;48171;51.550;5.434;2022-11-20T06:04:27;101236.41;;;-1.18;89.09
61018;BME280;48171;51.550;5.434;2022-11-20T06:06:52;101240.06;;;-1.15;89.13
61018;BME280;48171;51.550;5.434;2022-11-20T06:09:17;101231.53;;;-1.12;89.17
61018;BME280;48171;51.550;5.434;2022-11-20T06:11:43;101235.94;;;-1.10;89.45
61018;BME280;48171;51.550;5.434;2022-11-20T06:14:08;101225.50;;;-1.11;89.63
61018;BME280;48171;51.550;5.434;2022-11-20T06:16:33;101236.31;;;-1.02;89.87
61018;BME280;48171;51.550;5.434;2022-11-20T06:18:58;101236.50;;;-0.97;89.95
61018;BME280;48171;51.550;5.434;2022-11-20T06:21:24;101233.13;;;-0.96;89.65
61018;BME280;48171;51.550;5.434;2022-11-20T06:23:50;101241.19;;;-0.90;89.93
61018;BME280;48171;51.550;5.434;2022-11-20T06:26:19;101230.03;;;-0.88;89.74
61018;BME280;48171;51.550;5.434;2022-11-20T06:28:45;101219.75;;;-0.86;90.12
61018;BME280;48171;51.550;5.434;2022-11-20T06:31:13;101229.53;;;-0.81;90.21
61018;BME280;48171;51.550;5.434;2022-11-20T06:33:39;101238.25;;;-0.78;89.91
61018;BME280;48171;51.550;5.434;2022-11-20T06:36:04;101234.81;;;-0.77;90.06
61018;BME280;48171;51.550;5.434;2022-11-20T06:38:30;101231.44;;;-0.76;89.66
61018;BME280;48171;51.550;5.434;2022-11-20T06:40:56;101228.97;;;-0.73;90.19
61018;BME280;48171;51.550;5.434;2022-11-20T06:43:22;101226.38;;;-0.73;89.94
61018;BME280;48171;51.550;5.434;2022-11-20T06:45:54;101220.41;;;-0.71;90.12
61018;BME280;48171;51.550;5.434;2022-11-20T06:48:21;101194.28;;;-0.75;89.85
61018;BME280;48171;51.550;5.434;2022-11-20T06:50:47;101209.59;;;-0.62;90.03
61018;BME280;48171;51.550;5.434;2022-11-20T06:53:12;101200.00;;;-0.63;90.13
61018;BME280;48171;51.550;5.434;2022-11-20T06:55:42;101204.47;;;-0.61;89.93
61018;BME280;48171;51.550;5.434;2022-11-20T06:58:08;101202.88;;;-0.57;89.96
61018;BME280;48171;51.550;5.434;2022-11-20T07:00:33;101203.63;;;-0.59;90.15
61018;BME280;48171;51.550;5.434;2022-11-20T07:03:03;101204.66;;;-0.56;90.17
61018;BME280;48171;51.550;5.434;2022-11-20T07:05:28;101200.09;;;-0.62;90.27
61018;BME280;48171;51.550;5.434;2022-11-20T07:07:56;101218.41;;;-0.58;90.41
61018;BME280;48171;51.550;5.434;2022-11-20T07:10:21;101213.94;;;-0.61;90.71
61018;BME280;48171;51.550;5.434;2022-11-20T07:12:50;101215.72;;;-0.60;91.25
61018;BME280;48171;51.550;5.434;2022-11-20T07:15:17;101205.41;;;-0.58;91.34
61018;BME280;48171;51.550;5.434;2022-11-20T07:17:42;101202.81;;;-0.58;91.46
61018;BME280;48171;51.550;5.434;2022-11-20T07:20:08;101202.19;;;-0.53;91.44
61018;BME280;48171;51.550;5.434;2022-11-20T07:22:33;101201.44;;;-0.50;91.38
61018;BME280;48171;51.550;5.434;2022-11-20T07:24:59;101185.72;;;-0.53;91.45
61018;BME280;48171;51.550;5.434;2022-11-20T07:27:24;101194.72;;;-0.45;91.01
61018;BME280;48171;51.550;5.434;2022-11-20T07:29:49;101187.78;;;-0.46;91.30
61018;BME280;48171;51.550;5.434;2022-11-20T07:32:14;101192.28;;;-0.42;91.64
61018;BME280;48171;51.550;5.434;2022-11-20T07:34:40;101193.16;;;-0.42;91.62
61018;BME280;48171;51.550;5.434;2022-11-20T07:37:05;101194.13;;;-0.39;91.54
61018;BME280;48171;51.550;5.434;2022-11-20T07:39:30;101189.88;;;-0.37;91.39
61018;BME280;48171;51.550;5.434;2022-11-20T07:41:56;101182.09;;;-0.37;91.70
61018;BME280;48171;51.550;5.434;2022-11-20T07:44:21;101187.41;;;-0.34;91.76
61018;BME280;48171;51.550;5.434;2022-11-20T07:46:46;101181.41;;;-0.33;91.62
61018;BME280;48171;51.550;5.434;2022-11-20T07:49:11;101180.53;;;-0.34;91.98
61018;BME280;48171;51.550;5.434;2022-11-20T07:51:37;101193.75;;;-0.28;91.95
61018;BME280;48171;51.550;5.434;2022-11-20T07:54:02;101192.03;;;-0.27;92.38
61018;BME280;48171;51.550;5.434;2022-11-20T07:56:27;101189.63;;;-0.23;92.33
61018;BME280;48171;51.550;5.434;2022-11-20T07:58:52;101194.28;;;-0.15;92.22
61018;BME280;48171;51.550;5.434;2022-11-20T08:01:18;101186.56;;;-0.14;91.75
61018;BME280;48171;51.550;5.434;2022-11-20T08:03:43;101200.59;;;-0.09;92.30
61018;BME280;48171;51.550;5.434;2022-11-20T08:06:08;101196.25;;;-0.10;92.77
61018;BME280;48171;51.550;5.434;2022-11-20T08:08:34;101206.75;;;-0.07;92.57
61018;BME280;48171;51.550;5.434;2022-11-20T08:10:59;101202.50;;;-0.05;92.67
61018;BME280;48171;51.550;5.434;2022-11-20T08:13:43;101201.94;;;0.03;92.79
61018;BME280;48171;51.550;5.434;2022-11-20T08:16:27;101202.81;;;0.03;93.20
61018;BME280;48171;51.550;5.434;2022-11-20T08:18:53;101201.25;;;0.07;93.01
61018;BME280;48171;51.550;5.434;2022-11-20T08:21:18;101192.63;;;0.08;93.28
61018;BME280;48171;51.550;5.434;2022-11-20T08:23:43;101191.03;;;0.11;93.39
61018;BME280;48171;51.550;5.434;2022-11-20T08:26:09;101178.94;;;0.12;93.41
61018;BME280;48171;51.550;5.434;2022-11-20T08:28:34;101184.50;;;0.21;93.60
61018;BME280;48171;51.550;5.434;2022-11-20T08:31:00;101180.13;;;0.20;93.19
61018;BME280;48171;51.550;5.434;2022-11-20T08:33:26;101185.47;;;0.23;93.64
61018;BME280;48171;51.550;5.434;2022-11-20T08:35:51;101188.06;;;0.23;93.71
61018;BME280;48171;51.550;5.434;2022-11-20T08:38:16;101193.38;;;0.26;94.02
61018;BME280;48171;51.550;5.434;2022-11-20T08:40:42;101191.66;;;0.27;94.28
61018;BME280;48171;51.550;5.434;2022-11-20T08:43:27;101191.78;;;0.30;94.31
61018;BME280;48171;51.550;5.434;2022-11-20T08:45:52;101192.78;;;0.33;94.53
61018;BME280;48171;51.550;5.434;2022-11-20T08:48:18;101194.69;;;0.37;94.40
61018;BME280;48171;51.550;5.434;2022-11-20T08:50:43;101190.44;;;0.39;94.67
61018;BME280;48171;51.550;5.434;2022-11-20T08:53:08;101180.19;;;0.43;94.65
61018;BME280;48171;51.550;5.434;2022-11-20T08:55:33;101187.38;;;0.50;94.51
61018;BME280;48171;51.550;5.434;2022-11-20T08:58:05;101185.72;;;0.52;94.90
61018;BME280;48171;51.550;5.434;2022-11-20T09:00:31;101186.81;;;0.57;94.71
61018;BME280;48171;51.550;5.434;2022-11-20T09:02:57;101174.75;;;0.59;94.95
61018;BME280;48171;51.550;5.434;2022-11-20T09:05:23;101174.03;;;0.63;95.20
61018;BME280;48171;51.550;5.434;2022-11-20T09:07:48;101175.06;;;0.67;95.30
61018;BME280;48171;51.550;5.434;2022-11-20T09:10:14;101177.81;;;0.71;95.66
61018;BME280;48171;51.550;5.434;2022-11-20T09:12:39;101180.53;;;0.74;96.42
61018;BME280;48171;51.550;5.434;2022-11-20T09:15:05;101175.44;;;0.77;96.43
61018;BME280;48171;51.550;5.434;2022-11-20T09:17:30;101175.63;;;0.82;96.90
61018;BME280;48171;51.550;5.434;2022-11-20T09:19:55;101163.63;;;0.86;96.58
61018;BME280;48171;51.550;5.434;2022-11-20T09:22:20;101171.72;;;0.93;96.69
61018;BME280;48171;51.550;5.434;2022-11-20T09:24:46;101170.09;;;0.97;96.60
61018;BME280;48171;51.550;5.434;2022-11-20T09:27:11;101158.06;;;0.99;96.57
61018;BME280;48171;51.550;5.434;2022-11-20T09:29:36;101149.47;;;1.02;96.95
61018;BME280;48171;51.550;5.434;2022-11-20T09:32:02;101155.72;;;1.07;97.04
61018;BME280;48171;51.550;5.434;2022-11-20T09:34:27;101149.03;;;1.13;97.15
61018;BME280;48171;51.550;5.434;2022-11-20T09:36:52;101149.25;;;1.19;97.82
61018;BME280;48171;51.550;5.434;2022-11-20T09:39:17;101143.34;;;1.25;98.26
61018;BME280;48171;51.550;5.434;2022-11-20T09:42:04;101142.81;;;1.34;99.00
61018;BME280;48171;51.550;5.434;2022-11-20T09:47:12;101131.09;;;1.47;98.38
61018;BME280;48171;51.550;5.434;2022-11-20T09:50:19;101128.78;;;1.54;98.21
61018;BME280;48171;51.550;5.434;2022-11-20T09:55:43;101115.16;;;1.63;98.39
61018;BME280;48171;51.550;5.434;2022-11-20T09:58:24;101123.19;;;1.69;98.23
61018;BME280;48171;51.550;5.434;2022-11-20T10:00:51;101115.44;;;1.71;98.19
61018;BME280;48171;51.550;5.434;2022-11-20T10:03:26;101120.75;;;1.74;98.13
61018;BME280;48171;51.550;5.434;2022-11-20T10:05:56;101103.28;;;1.71;98.02
61018;BME280;48171;51.550;5.434;2022-11-20T10:08:28;101104.19;;;1.72;98.08
61018;BME280;48171;51.550;5.434;2022-11-20T10:11:26;101103.47;;;1.76;98.17
61018;BME280;48171;51.550;5.434;2022-11-20T10:21:39;101081.28;;;1.89;99.01
61018;BME280;48171;51.550;5.434;2022-11-20T10:24:34;101079.81;;;1.97;98.49
61018;BME280;48171;51.550;5.434;2022-11-20T10:29:59;101055.66;;;2.03;98.96
61018;BME280;48171;51.550;5.434;2022-11-20T10:32:33;101032.28;;;2.06;99.18
61018;BME280;48171;51.550;5.434;2022-11-20T10:35:01;101025.50;;;2.11;99.20
61018;BME280;48171;51.550;5.434;2022-11-20T10:37:29;101025.75;;;2.18;99.46
61018;BME280;48171;51.550;5.434;2022-11-20T10:42:37;101017.25;;;2.26;99.27
61018;BME280;48171;51.550;5.434;2022-11-20T10:45:28;101013.78;;;2.25;99.29
61018;BME280;48171;51.550;5.434;2022-11-20T10:48:09;101014.75;;;2.29;99.47
61018;BME280;48171;51.550;5.434;2022-11-20T10:50:36;101012.16;;;2.29;99.49
61018;BME280;48171;51.550;5.434;2022-11-20T10:53:31;101009.59;;;2.32;99.55
61018;BME280;48171;51.550;5.434;2022-11-20T10:56:05;101002.59;;;2.29;99.46
61018;BME280;48171;51.550;5.434;2022-11-20T11:01:20;100986.94;;;2.29;99.98
61018;BME280;48171;51.550;5.434;2022-11-20T11:03:48;100975.72;;;2.32;100.00
61018;BME280;48171;51.550;5.434;2022-11-20T11:06:36;100979.25;;;2.34;100.00
61018;BME280;48171;51.550;5.434;2022-11-20T11:09:04;100975.88;;;2.38;100.00
61018;BME280;48171;51.550;5.434;2022-11-20T11:11:34;100980.34;;;2.42;100.00
61018;BME280;48171;51.550;5.434;2022-11-20T11:14:06;100969.16;;;2.46;100.00
61018;BME280;48171;51.550;5.434;2022-11-20T11:16:31;100978.81;;;2.49;100.00
61018;BME280;48171;51.550;5.434;2022-11-20T11:19:04;100978.00;;;2.51;100.00
61018;BME280;48171;51.550;5.434;2022-11-20T11:21:29;100977.25;;;2.55;100.00
61018;BME280;48171;51.550;5.434;2022-11-20T11:24:03;100977.22;;;2.54;100.00
61018;BME280;48171;51.550;5.434;2022-11-20T11:26:29;100977.22;;;2.54;100.00
61018;BME280;48171;51.550;5.434;2022-11-20T11:29:01;100972.97;;;2.57;100.00
61018;BME280;48171;51.550;5.434;2022-11-20T11:31:33;100976.44;;;2.58;100.00
61018;BME280;48171;51.550;5.434;2022-11-20T11:34:14;100981.81;;;2.63;100.00
61018;BME280;48171;51.550;5.434;2022-11-20T11:36:40;100973.91;;;2.59;100.00
61018;BME280;48171;51.550;5.434;2022-11-20T11:39:11;100969.59;;;2.62;100.00
61018;BME280;48171;51.550;5.434;2022-11-20T11:41:40;100967.03;;;2.63;100.00
61018;BME280;48171;51.550;5.434;2022-11-20T11:44:17;100959.25;;;2.65;100.00
61018;BME280;48171;51.550;5.434;2022-11-20T11:47:03;100930.38;;;2.58;100.00
61018;BME280;48171;51.550;5.434;2022-11-20T11:49:30;100945.19;;;2.59;100.00
61018;BME280;48171;51.550;5.434;2022-11-20T11:52:09;100948.94;;;2.69;100.00
61018;BME280;48171;51.550;5.434;2022-11-20T11:54:54;100936.81;;;2.71;100.00
61018;BME280;48171;51.550;5.434;2022-11-20T11:57:24;100931.66;;;2.74;100.00
61018;BME280;48171;51.550;5.434;2022-11-20T12:00:06;100923.09;;;2.78;100.00
61018;BME280;48171;51.550;5.434;2022-11-20T12:05:22;100908.53;;;2.88;100.00
61018;BME280;48171;51.550;5.434;2022-11-20T12:08:03;100889.44;;;2.89;100.00
61018;BME280;48171;51.550;5.434;2022-11-20T12:15:53;100874.88;;;2.97;100.00
61018;BME280;48171;51.550;5.434;2022-11-20T12:18:20;100853.13;;;2.98;100.00
61018;BME280;48171;51.550;5.434;2022-11-20T12:26:27;100845.66;;;3.14;100.00
61018;BME280;48171;51.550;5.434;2022-11-20T12:29:12;100837.00;;;3.16;100.00
61018;BME280;48171;51.550;5.434;2022-11-20T12:32:19;100841.41;;;3.19;100.00
61018;BME280;48171;51.550;5.434;2022-11-20T12:37:57;100841.56;;;3.25;100.00
61018;BME280;48171;51.550;5.434;2022-11-20T12:40:45;100826.81;;;3.27;100.00
61018;BME280;48171;51.550;5.434;2022-11-20T12:43:26;100826.94;;;3.32;100.00
61018;BME280;48171;51.550;5.434;2022-11-20T12:49:06;100812.22;;;3.35;100.00
61018;BME280;48171;51.550;5.434;2022-11-20T12:57:19;100775.00;;;3.46;100.00
61018;BME280;48171;51.550;5.434;2022-11-20T13:00:07;100776.00;;;3.52;100.00
61018;BME280;48171;51.550;5.434;2022-11-20T13:02:58;100755.16;;;3.55;100.00
61018;BME280;48171;51.550;5.434;2022-11-20T13:08:01;100743.91;;;3.58;100.00
61018;BME280;48171;51.550;5.434;2022-11-20T13:10:38;100750.06;;;3.62;100.00
61018;BME280;48171;51.550;5.434;2022-11-20T13:13:29;100743.19;;;3.67;100.00
61018;BME280;48171;51.550;5.434;2022-11-20T13:16:02;100729.22;;;3.65;100.00
61018;BME280;48171;51.550;5.434;2022-11-20T13:18:28;100731.91;;;3.69;100.00
61018;BME280;48171;51.550;5.434;2022-11-20T13:20:56;100726.69;;;3.69;100.00
61018;BME280;48171;51.550;5.434;2022-11-20T13:23:25;100736.34;;;3.73;100.00
61018;BME280;48171;51.550;5.434;2022-11-20T13:26:02;100720.78;;;3.79;100.00
61018;BME280;48171;51.550;5.434;2022-11-20T13:28:29;100710.34;;;3.81;100.00
61018;BME280;48171;51.550;5.434;2022-11-20T13:30:56;100705.16;;;3.83;100.00
61018;BME280;48171;51.550;5.434;2022-11-20T13:33:30;100699.97;;;3.86;100.00
61018;BME280;48171;51.550;5.434;2022-11-20T13:36:05;100694.75;;;3.84;100.00
61018;BME280;48171;51.550;5.434;2022-11-20T13:38:48;100693.03;;;3.88;100.00
61018;BME280;48171;51.550;5.434;2022-11-20T13:41:29;100698.38;;;3.92;100.00
61018;BME280;48171;51.550;5.434;2022-11-20T13:44:15;100699.28;;;3.94;100.00
61018;BME280;48171;51.550;5.434;2022-11-20T13:46:46;100682.69;;;3.92;100.00
61018;BME280;48171;51.550;5.434;2022-11-20T13:49:24;100687.13;;;3.96;100.00
61018;BME280;48171;51.550;5.434;2022-11-20T13:51:51;100670.56;;;3.97;100.00
61018;BME280;48171;51.550;5.434;2022-11-20T13:57:21;100669.81;;;4.03;100.00
61018;BME280;48171;51.550;5.434;2022-11-20T14:02:25;100653.31;;;4.07;100.00